Time;durP1;ratioP1;P1;durP2;ratioP2;P2;SDS_P1;SDS_P2;PMS_P1;PMS_P2;Temp;Humidity;BMP_temperature;BMP_pressure;BME280_temperature;BME280_humidity;BME280_pressure;Samples;Min_cycle;Max_cycle;Signal;HPM_P1;HPM_P2
2023/04/09 00:00:26;;;;;;;49.65;26.85;;;;;;;0.62;100.00;101659.16;5002962;28;20038;-77
2023/04/09 00:02:51;;;;;;;52.63;28.20;;;;;;;0.62;100.00;101659.16;5003307;28;20049;-78
2023/04/09 00:05:16;;;;;;;44.92;26.58;;;;;;;0.60;100.00;101664.31;5001963;28;20042;-77
2023/04/09 00:07:42;;;;;;;52.58;29.30;;;;;;;0.63;100.00;101672.25;5003759;28;20045;-77
2023/04/09 00:10:07;;;;;;;53.05;31.42;;;;;;;0.66;100.00;101663.72;5003112;28;20094;-78
2023/04/09 00:12:33;;;;;;;59.45;32.50;;;;;;;0.68;100.00;101659.47;5002853;28;20097;-78
2023/04/09 00:14:58;;;;;;;68.28;34.92;;;;;;;0.67;100.00;101665.50;5002755;28;20056;-78
2023/04/09 00:17:24;;;;;;;71.13;36.13;;;;;;;0.70;100.00;101668.25;5003316;28;20046;-78
2023/04/09 00:19:49;;;;;;;67.15;35.10;;;;;;;0.72;100.00;101665.75;5002973;28;20101;-77
2023/04/09 00:22:15;;;;;;;64.32;33.22;;;;;;;0.70;100.00;101670.84;5003046;28;20074;-77
2023/04/09 00:24:40;;;;;;;63.20;33.53;;;;;;;0.66;100.00;101671.50;5005241;28;20042;-77
2023/04/09 00:27:05;;;;;;;56.60;32.25;;;;;;;0.64;100.00;101667.94;5007286;28;20030;-78
2023/04/09 00:29:30;;;;;;;63.55;36.38;;;;;;;0.56;100.00;101669.25;5007194;28;20035;-78
2023/04/09 00:31:56;;;;;;;69.13;34.42;;;;;;;0.51;100.00;101673.31;4998709;28;20034;-77
2023/04/09 00:34:21;;;;;;;78.18;37.97;;;;;;;0.51;100.00;101670.72;5007888;28;20076;-77
2023/04/09 00:36:47;;;;;;;73.60;37.08;;;;;;;0.50;100.00;101674.09;5008774;28;20065;-78
2023/04/09 00:39:12;;;;;;;73.25;38.45;;;;;;;0.47;100.00;101664.44;4997182;28;20054;-78
2023/04/09 00:41:37;;;;;;;64.68;33.30;;;;;;;0.46;100.00;101675.66;5006723;28;20656;-78
2023/04/09 00:44:02;;;;;;;73.30;36.88;;;;;;;0.45;100.00;101673.88;5000692;28;20045;-77
2023/04/09 00:46:28;;;;;;;72.20;36.30;;;;;;;0.44;100.00;101675.56;5006992;28;20038;-78
2023/04/09 00:48:53;;;;;;;60.75;31.42;;;;;;;0.39;100.00;101681.31;5007121;28;20069;-77
2023/04/09 00:51:19;;;;;;;65.47;33.10;;;;;;;0.33;100.00;101671.50;4996790;28;20113;-77
2023/04/09 00:53:46;;;;;;;58.33;29.17;;;;;;;0.26;100.00;101684.06;4997610;28;20448;-78
2023/04/09 00:56:12;;;;;;;40.17;23.67;;;;;;;0.16;100.00;101685.31;5006582;28;20034;-78
2023/04/09 00:58:39;;;;;;;57.67;25.40;;;;;;;0.07;100.00;101684.78;4998099;28;20126;-78
2023/04/09 01:01:04;;;;;;;48.53;26.77;;;;;;;0.01;100.00;101682.75;5003437;28;20034;-77
2023/04/09 01:03:30;;;;;;;51.20;27.57;;;;;;;-0.06;100.00;101685.81;4998818;28;20535;-78
2023/04/09 01:06:24;;;;;;;48.53;25.17;;;;;;;-0.02;100.00;101688.66;5005699;28;20093;-78
2023/04/09 01:09:08;;;;;;;51.40;28.03;;;;;;;-0.02;100.00;101685.19;5002270;28;20034;-78
2023/04/09 01:11:33;;;;;;;47.07;26.73;;;;;;;-0.08;100.00;101688.34;4996712;28;20079;-77
2023/04/09 01:14:36;;;;;;;39.37;23.10;;;;;;;-0.02;100.00;101685.19;5006585;28;20034;-77
2023/04/09 01:17:14;;;;;;;43.38;23.38;;;;;;;0.02;100.00;101686.25;4978882;28;20484;-79
2023/04/09 01:19:53;;;;;;;43.37;22.10;;;;;;;0.09;100.00;101688.38;5007858;28;20030;-80
2023/04/09 01:22:40;;;;;;;68.18;23.27;;;;;;;0.16;100.00;101680.13;5004295;28;20046;-79
2023/04/09 01:25:24;;;;;;;68.25;26.10;;;;;;;0.18;100.00;101681.97;4999413;28;20034;-79
2023/04/09 01:28:15;;;;;;;62.50;27.55;;;;;;;0.10;100.00;101682.34;5006919;28;20042;-78
2023/04/09 01:30:46;;;;;;;62.53;27.73;;;;;;;0.06;100.00;101680.41;5006256;28;20492;-79
2023/04/09 01:33:14;;;;;;;115.90;41.03;;;;;;;0.01;100.00;101685.34;5008063;28;20124;-79
2023/04/09 01:35:45;;;;;;;58.92;29.58;;;;;;;-0.04;100.00;101682.50;5008587;28;20089;-79
2023/04/09 01:38:13;;;;;;;50.83;25.63;;;;;;;-0.12;100.00;101683.78;5009034;28;20045;-79
2023/04/09 01:40:39;;;;;;;66.30;35.37;;;;;;;-0.16;100.00;101684.41;5008285;28;20045;-79
2023/04/09 01:43:07;;;;;;;51.60;28.00;;;;;;;-0.22;100.00;101684.97;5005131;28;20040;-79
2023/04/09 01:45:33;;;;;;;38.33;22.37;;;;;;;-0.22;100.00;101684.97;4991281;28;20034;-79
2023/04/09 01:48:00;;;;;;;56.03;31.43;;;;;;;-0.23;100.00;101687.47;5009009;28;20118;-79
2023/04/09 01:50:25;;;;;;;48.23;29.00;;;;;;;-0.33;100.00;101678.28;4999951;28;20125;-79
2023/04/09 01:52:51;;;;;;;47.63;27.20;;;;;;;-0.39;100.00;101682.22;5010792;28;20033;-79
2023/04/09 01:55:17;;;;;;;43.90;23.47;;;;;;;-0.36;100.00;101680.72;5009244;28;20408;-79
2023/04/09 01:57:42;;;;;;;51.67;27.63;;;;;;;-0.33;100.00;101680.00;5009347;28;20130;-79
2023/04/09 02:00:09;;;;;;;50.33;26.77;;;;;;;-0.24;100.00;101675.31;4999050;28;20030;-78
2023/04/09 02:03:13;;;;;;;60.40;34.40;;;;;;;-0.20;100.00;101671.19;5008587;28;20035;-78
2023/04/09 02:05:45;;;;;;;57.90;29.00;;;;;;;-0.20;100.00;101684.16;4987193;28;20520;-78
2023/04/09 02:08:15;;;;;;;64.77;33.00;;;;;;;-0.19;100.00;101683.34;5004482;28;20502;-79
2023/04/09 02:10:52;;;;;;;72.40;39.33;;;;;;;-0.18;100.00;101679.94;5008354;28;20044;-78
2023/04/09 02:13:18;;;;;;;72.60;39.73;;;;;;;-0.17;100.00;101681.75;5008901;28;20068;-79
2023/04/09 02:15:45;;;;;;;70.30;36.40;;;;;;;-0.16;100.00;101680.91;5008974;28;20106;-79
2023/04/09 02:18:22;;;;;;;72.50;37.50;;;;;;;-0.19;100.00;101680.75;5008435;28;20054;-79
2023/04/09 02:20:47;;;;;;;59.67;32.60;;;;;;;-0.26;100.00;101677.81;5004489;28;20045;-80
2023/04/09 02:23:14;;;;;;;70.43;37.83;;;;;;;-0.23;100.00;101682.28;4996976;28;20041;-79
2023/04/09 02:25:40;;;;;;;80.67;40.83;;;;;;;-0.26;100.00;101677.81;5014553;28;20046;-79
2023/04/09 02:28:05;;;;;;;80.68;40.40;;;;;;;-0.21;100.00;101678.06;5008756;28;20049;-78
2023/04/09 02:30:30;;;;;;;82.97;42.55;;;;;;;-0.20;100.00;101679.88;5002091;28;20042;-78
2023/04/09 02:32:56;;;;;;;98.47;46.63;;;;;;;-0.30;100.00;101680.16;5008576;28;20045;-79
2023/04/09 02:35:21;;;;;;;92.43;43.97;;;;;;;-0.41;100.00;101681.25;5008520;28;20031;-78
2023/04/09 02:37:46;;;;;;;91.70;42.43;;;;;;;-0.36;100.00;101678.13;5003063;28;20032;-78
2023/04/09 02:40:12;;;;;;;83.37;43.23;;;;;;;-0.37;100.00;101673.72;5008548;28;20041;-78
2023/04/09 02:42:37;;;;;;;70.40;36.73;;;;;;;-0.33;100.00;101672.22;4998982;28;20034;-78
2023/04/09 02:45:03;;;;;;;73.43;38.70;;;;;;;-0.31;100.00;101673.19;5007258;28;20049;-79
2023/04/09 02:47:30;;;;;;;75.87;39.23;;;;;;;-0.29;100.00;101675.06;4999237;28;20031;-79
2023/04/09 02:49:56;;;;;;;80.30;39.67;;;;;;;-0.30;100.00;101675.84;4998557;28;20034;-79
2023/04/09 02:52:23;;;;;;;87.87;41.97;;;;;;;-0.39;100.00;101680.53;4999320;28;20049;-79
2023/04/09 02:54:49;;;;;;;90.23;41.93;;;;;;;-0.44;100.00;101684.56;5008821;28;20026;-78
2023/04/09 02:57:14;;;;;;;64.23;33.10;;;;;;;-0.48;100.00;101690.38;4998449;28;20085;-79
2023/04/09 02:59:40;;;;;;;63.13;31.40;;;;;;;-0.52;100.00;101681.53;4999350;28;20045;-79
2023/04/09 03:02:05;;;;;;;59.90;32.43;;;;;;;-0.55;100.00;101678.78;4998709;28;20114;-79
2023/04/09 03:04:31;;;;;;;62.40;31.37;;;;;;;-0.53;100.00;101678.84;5006846;28;20070;-79
2023/04/09 03:06:56;;;;;;;75.40;35.63;;;;;;;-0.67;100.00;101683.25;5007870;28;20045;-79
2023/04/09 03:09:21;;;;;;;60.90;29.27;;;;;;;-0.69;100.00;101680.56;4998892;28;20038;-79
2023/04/09 03:11:47;;;;;;;61.67;31.10;;;;;;;-0.77;100.00;101686.13;4995886;28;20022;-79
2023/04/09 03:14:12;;;;;;;55.47;29.37;;;;;;;-0.74;100.00;101678.50;5007988;28;20054;-79
2023/04/09 03:16:37;;;;;;;67.93;32.07;;;;;;;-0.72;100.00;101674.31;5008324;28;20030;-78
2023/04/09 03:19:03;;;;;;;60.10;30.53;;;;;;;-0.73;100.00;101669.94;5007305;28;20045;-79
2023/04/09 03:21:28;;;;;;;60.40;30.90;;;;;;;-0.77;100.00;101668.84;5007621;28;20392;-78
2023/04/09 03:23:53;;;;;;;62.57;30.43;;;;;;;-0.81;100.00;101673.78;5007989;28;20049;-79
2023/04/09 03:26:19;;;;;;;58.07;29.30;;;;;;;-0.79;100.00;101683.41;5006661;28;20034;-78
2023/04/09 03:28:48;;;;;;;54.40;27.27;;;;;;;-0.77;100.00;101675.75;4997226;28;20098;-78
2023/04/09 03:31:14;;;;;;;71.97;35.17;;;;;;;-0.78;100.00;101679.16;5007002;28;20045;-79
2023/04/09 03:33:41;;;;;;;63.00;32.47;;;;;;;-0.80;100.00;101684.25;4999159;28;20061;-79
2023/04/09 03:36:07;;;;;;;59.23;28.70;;;;;;;-0.77;100.00;101683.53;4998147;28;20120;-79
2023/04/09 03:38:53;;;;;;;62.77;31.47;;;;;;;-0.78;100.00;101684.34;4997050;28;20046;-79
2023/04/09 03:41:31;;;;;;;69.07;34.13;;;;;;;-0.82;100.00;101687.53;5022751;28;20061;-79
2023/04/09 03:44:00;;;;;;;56.20;27.60;;;;;;;-0.86;100.00;101690.75;4997861;28;20062;-79
2023/04/09 03:46:30;;;;;;;51.60;25.90;;;;;;;-0.88;100.00;101688.09;4997743;28;20026;-78
2023/04/09 03:48:57;;;;;;;50.90;25.60;;;;;;;-0.97;100.00;101684.94;5006196;28;20026;-79
2023/04/09 03:51:30;;;;;;;55.90;28.17;;;;;;;-1.02;100.00;101682.09;4994378;28;20014;-79
2023/04/09 03:53:57;;;;;;;47.87;25.63;;;;;;;-1.11;100.00;101684.13;4997951;28;20030;-79
2023/04/09 03:56:23;;;;;;;49.23;27.17;;;;;;;-1.14;100.00;101686.53;5005785;28;20038;-78
2023/04/09 03:58:48;;;;;;;50.07;25.90;;;;;;;-1.09;100.00;101685.13;5006737;28;20042;-78
2023/04/09 04:01:14;;;;;;;58.93;29.17;;;;;;;-1.09;100.00;101692.91;5001975;28;20061;-78
2023/04/09 04:03:51;;;;;;;52.53;28.33;;;;;;;-1.10;100.00;101698.91;5003101;28;20100;-79
2023/04/09 04:06:21;;;;;;;57.13;28.57;;;;;;;-1.12;100.00;101700.50;5001143;28;20027;-79
2023/04/09 04:09:13;;;;;;;44.90;23.53;;;;;;;-1.16;100.00;101706.28;4991928;28;20471;-78
2023/04/09 04:11:43;;;;;;;47.80;26.80;;;;;;;-1.14;100.00;101699.50;4999793;28;20034;-79
2023/04/09 04:14:09;;;;;;;46.30;24.17;;;;;;;-1.13;100.00;101706.47;5010730;28;20041;-79
2023/04/09 04:16:35;;;;;;;41.77;24.00;;;;;;;-1.07;100.00;101701.66;5002249;28;20077;-79
2023/04/09 04:19:03;;;;;;;38.00;21.43;;;;;;;-1.02;100.00;101704.50;5006729;28;20467;-79
2023/04/09 04:21:31;;;;;;;44.87;23.53;;;;;;;-0.96;100.00;101708.38;5005791;28;20396;-79
2023/04/09 04:24:00;;;;;;;53.60;28.63;;;;;;;-0.96;100.00;101710.97;5002569;28;20125;-79
2023/04/09 04:26:27;;;;;;;38.77;21.20;;;;;;;-0.94;100.00;101714.53;5001149;28;20034;-79
2023/04/09 04:28:53;;;;;;;37.67;22.77;;;;;;;-0.90;100.00;101719.09;5009987;28;20110;-78
2023/04/09 04:31:36;;;;;;;42.47;23.57;;;;;;;-0.79;100.00;101729.19;5001153;28;20030;-79
2023/04/09 04:34:01;;;;;;;37.63;21.00;;;;;;;-0.72;100.00;101726.16;5012624;28;20058;-79
2023/04/09 04:36:27;;;;;;;40.93;22.73;;;;;;;-0.66;100.00;101734.28;5001781;28;20090;-79
2023/04/09 04:38:52;;;;;;;38.13;22.97;;;;;;;-0.55;100.00;101735.84;5010133;28;20058;-80
2023/04/09 04:41:39;;;;;;;35.23;21.67;;;;;;;-0.51;100.00;101730.00;5001626;28;20074;-79
2023/04/09 04:44:12;;;;;;;36.43;22.30;;;;;;;-0.41;100.00;101727.94;5005662;28;20045;-79
2023/04/09 04:46:39;;;;;;;44.80;25.27;;;;;;;-0.35;100.00;101736.06;5009286;28;20031;-80
2023/04/09 04:49:04;;;;;;;58.93;30.03;;;;;;;-0.29;100.00;101728.63;5009626;28;20045;-79
2023/04/09 04:51:31;;;;;;;91.53;32.27;;;;;;;-0.27;100.00;101727.03;5011543;28;20027;-79
2023/04/09 04:54:07;;;;;;;84.13;28.20;;;;;;;-0.20;100.00;101723.97;5001940;28;20034;-78
2023/04/09 04:56:32;;;;;;;77.60;30.93;;;;;;;-0.19;100.00;101725.75;5010105;28;20041;-79
2023/04/09 04:59:07;;;;;;;125.03;34.40;;;;;;;-0.10;100.00;101721.09;4996434;28;20080;-79
2023/04/09 05:01:45;;;;;;;215.70;43.90;;;;;;;-0.15;100.00;101726.84;5002071;28;20408;-79
2023/04/09 05:04:12;;;;;;;127.80;37.13;;;;;;;-0.13;100.00;101723.53;4999802;28;20039;-79
2023/04/09 05:06:37;;;;;;;235.97;49.83;;;;;;;-0.05;100.00;101724.84;5009901;28;20030;-78
2023/04/09 05:09:07;;;;;;;118.37;36.67;;;;;;;-0.04;100.00;101725.72;5000315;28;20034;-80
2023/04/09 05:11:39;;;;;;;85.72;30.48;;;;;;;0.03;100.00;101722.69;5000872;28;20026;-78
2023/04/09 05:14:12;;;;;;;95.93;30.73;;;;;;;0.04;100.00;101718.38;5000295;28;20038;-78
2023/04/09 05:16:37;;;;;;;96.90;33.38;;;;;;;0.00;100.00;101717.31;5000889;28;20034;-79
2023/04/09 05:19:04;;;;;;;96.13;32.97;;;;;;;0.04;100.00;101719.25;5015934;23;20113;-73
2023/04/09 05:21:30;;;;;;;112.57;35.17;;;;;;;0.11;100.00;101720.50;4986998;28;20038;-74
2023/04/09 05:23:57;;;;;;;212.57;51.53;;;;;;;0.14;100.00;101723.25;5004614;28;20495;-74
2023/04/09 05:26:22;;;;;;;82.35;35.05;;;;;;;0.23;100.00;101723.75;5003552;28;20038;-73
2023/04/09 05:28:55;;;;;;;131.40;41.67;;;;;;;0.29;100.00;101724.09;4991261;28;20077;-73
2023/04/09 05:31:22;;;;;;;112.95;39.55;;;;;;;0.30;100.00;101714.59;4988005;28;20088;-74
2023/04/09 05:34:10;;;;;;;133.50;38.85;;;;;;;0.43;100.00;101717.94;4990344;28;20030;-74
2023/04/09 05:36:42;;;;;;;62.70;31.40;;;;;;;0.45;100.00;101712.84;4988069;28;20057;-74
2023/04/09 05:39:08;;;;;;;70.60;32.85;;;;;;;0.51;100.00;101728.75;4984224;28;20042;-74
2023/04/09 05:41:36;;;;;;;140.00;42.97;;;;;;;0.64;100.00;101725.09;4995400;28;20119;-74
2023/04/09 05:44:20;;;;;;;90.87;35.50;;;;;;;0.66;100.00;101728.69;5004522;28;20119;-76
2023/04/09 05:46:46;;;;;;;65.90;32.83;;;;;;;0.63;100.00;101729.41;4996530;28;20038;-76
2023/04/09 05:49:15;;;;;;;92.60;36.38;;;;;;;0.60;100.00;101730.94;4984233;28;20133;-75
2023/04/09 05:51:43;;;;;;;84.20;34.63;;;;;;;0.60;100.00;101723.13;4984259;28;20484;-75
2023/04/09 05:54:10;;;;;;;151.25;45.67;;;;;;;0.65;100.00;101722.59;4987960;28;20019;-76
2023/04/09 05:56:36;;;;;;;83.38;35.17;;;;;;;0.73;100.00;101716.88;4993365;28;20038;-76
2023/04/09 05:59:03;;;;;;;83.50;33.70;;;;;;;0.78;100.00;101724.09;4986758;28;20030;-76
2023/04/09 06:01:28;;;;;;;66.82;30.40;;;;;;;0.93;100.00;101725.72;5002330;28;20034;-75
2023/04/09 06:03:54;;;;;;;80.60;30.00;;;;;;;0.92;100.00;101722.25;5004483;28;20042;-75
2023/04/09 06:06:19;;;;;;;68.03;26.98;;;;;;;0.96;100.00;101718.97;4988656;28;20460;-76
2023/04/09 06:08:44;;;;;;;60.63;28.90;;;;;;;1.04;100.00;101725.47;4986283;28;20499;-75
2023/04/09 06:11:11;;;;;;;48.38;25.50;;;;;;;1.24;100.00;101723.88;5002381;28;20038;-76
2023/04/09 06:13:37;;;;;;;55.10;25.17;;;;;;;1.39;100.00;101720.25;5003625;28;20389;-75
2023/04/09 06:16:04;;;;;;;51.45;26.25;;;;;;;1.31;100.00;101720.78;4990576;28;20447;-76
2023/04/09 06:18:30;;;;;;;49.55;24.30;;;;;;;1.41;100.00;101718.63;4987793;28;20088;-76
2023/04/09 06:21:06;;;;;;;47.95;26.35;;;;;;;1.59;100.00;101723.88;5005030;28;20038;-76
2023/04/09 06:23:33;;;;;;;53.85;29.83;;;;;;;1.52;100.00;101720.09;5004426;28;20034;-76
2023/04/09 06:25:59;;;;;;;43.03;24.85;;;;;;;1.50;100.00;101722.59;5004697;28;20033;-76
2023/04/09 06:28:24;;;;;;;37.10;23.83;;;;;;;1.69;100.00;101720.91;5007393;28;20473;-75
2023/04/09 06:30:50;;;;;;;37.25;22.48;;;;;;;1.77;100.00;101716.06;4983279;28;20038;-76
2023/04/09 06:33:15;;;;;;;42.40;26.65;;;;;;;1.81;100.00;101712.78;5004943;28;20034;-76
2023/04/09 06:35:40;;;;;;;44.38;25.27;;;;;;;1.63;100.00;101716.28;5004440;28;20037;-76
2023/04/09 06:38:06;;;;;;;40.78;25.13;;;;;;;1.63;100.00;101710.19;5001041;28;20066;-75
2023/04/09 06:40:31;;;;;;;42.47;27.00;;;;;;;1.67;100.00;101712.13;5007791;28;20065;-76
2023/04/09 06:42:57;;;;;;;48.17;29.98;;;;;;;1.78;100.00;101708.31;5004150;28;20132;-76
2023/04/09 06:45:28;;;;;;;47.05;30.73;;;;;;;1.90;100.00;101708.03;4984605;28;20045;-75
2023/04/09 06:47:54;;;;;;;73.53;41.72;;;;;;;1.98;100.00;101714.50;5002903;28;20057;-77
2023/04/09 06:50:20;;;;;;;53.17;33.97;;;;;;;2.02;100.00;101721.63;5004408;28;20394;-76
2023/04/09 06:52:45;;;;;;;51.90;34.92;;;;;;;2.18;100.00;101718.94;5005236;28;20044;-76
2023/04/09 06:55:10;;;;;;;58.80;34.55;;;;;;;2.31;100.00;101722.13;4989601;28;20037;-76
2023/04/09 06:57:37;;;;;;;62.88;36.17;;;;;;;2.43;100.00;101722.66;4984661;28;20042;-76
2023/04/09 07:00:03;;;;;;;50.38;31.73;;;;;;;2.66;100.00;101728.91;5002198;28;20400;-76
2023/04/09 07:02:28;;;;;;;47.22;30.15;;;;;;;2.90;100.00;101723.91;5004194;28;20045;-76
2023/04/09 07:04:53;;;;;;;55.08;38.00;;;;;;;3.01;100.00;101726.97;5002514;28;20042;-76
2023/04/09 07:07:19;;;;;;;45.83;30.10;;;;;;;2.97;100.00;101720.75;5001840;28;20080;-76
2023/04/09 07:09:45;;;;;;;45.58;28.83;;;;;;;3.04;100.00;101729.75;4986431;28;20567;-76
2023/04/09 07:12:10;;;;;;;51.55;35.75;;;;;;;3.08;100.00;101729.03;5003845;28;20034;-76
2023/04/09 07:14:36;;;;;;;53.53;34.78;;;;;;;3.03;100.00;101728.84;5004181;28;20033;-77
2023/04/09 07:17:01;;;;;;;54.40;35.17;;;;;;;3.01;100.00;101735.72;5001354;28;20038;-76
2023/04/09 07:19:26;;;;;;;46.03;31.65;;;;;;;3.05;100.00;101739.34;5002412;28;20125;-76
2023/04/09 07:21:51;;;;;;;59.17;37.10;;;;;;;3.07;100.00;101749.03;5001087;28;20065;-76
2023/04/09 07:24:17;;;;;;;54.53;35.80;;;;;;;3.16;100.00;101752.84;5006595;28;20052;-76
2023/04/09 07:26:42;;;;;;;54.80;34.05;;;;;;;3.32;100.00;101744.84;5000924;28;20034;-77
2023/04/09 07:29:08;;;;;;;50.42;33.90;;;;;;;3.41;100.00;101755.69;5005785;28;20038;-76
2023/04/09 07:31:33;;;;;;;54.97;36.75;;;;;;;3.40;100.00;101755.63;5000716;28;20034;-76
2023/04/09 07:33:58;;;;;;;66.10;43.85;;;;;;;3.44;100.00;101755.81;5002215;28;20041;-76
2023/04/09 07:36:24;;;;;;;65.18;42.03;;;;;;;3.57;100.00;101752.00;5004068;28;20038;-76
2023/04/09 07:38:50;;;;;;;61.78;42.55;;;;;;;3.64;100.00;101754.06;5002723;28;20480;-76
2023/04/09 07:41:15;;;;;;;57.70;38.70;;;;;;;3.85;100.00;101746.22;5000170;28;20105;-76
2023/04/09 07:43:41;;;;;;;55.53;36.88;;;;;;;4.02;100.00;101746.00;5003324;28;20100;-76
2023/04/09 07:46:06;;;;;;;58.28;38.63;;;;;;;4.14;100.00;101747.38;5006952;28;20042;-77
2023/04/09 07:48:32;;;;;;;60.22;39.92;;;;;;;4.27;100.00;101740.00;4999780;28;20042;-76
2023/04/09 07:50:57;;;;;;;66.40;43.00;;;;;;;4.45;100.00;101737.19;5002529;28;20045;-76
2023/04/09 07:53:22;;;;;;;69.70;43.60;;;;;;;4.55;100.00;101734.97;5010121;28;20042;-76
2023/04/09 07:55:50;;;;;;;63.55;42.30;;;;;;;4.74;100.00;101733.06;4999731;28;20046;-76
2023/04/09 07:58:15;;;;;;;67.82;43.80;;;;;;;4.88;100.00;101728.34;4990671;28;20486;-76
2023/04/09 08:00:41;;;;;;;72.38;47.95;;;;;;;4.98;100.00;101727.84;4982482;28;20082;-77
2023/04/09 08:03:06;;;;;;;64.78;43.75;;;;;;;5.10;100.00;101728.25;5004963;28;20091;-76
2023/04/09 08:05:31;;;;;;;65.80;43.70;;;;;;;5.24;100.00;101724.41;5000266;28;20039;-76
2023/04/09 08:07:57;;;;;;;72.13;46.53;;;;;;;5.44;100.00;101725.06;5003268;28;20041;-76
2023/04/09 08:10:22;;;;;;;74.82;47.15;;;;;;;5.54;100.00;101723.66;5002307;28;20044;-76
2023/04/09 08:12:47;;;;;;;69.93;45.58;;;;;;;5.66;100.00;101718.84;4982929;28;20046;-76
2023/04/09 08:15:13;;;;;;;69.35;45.30;;;;;;;5.79;100.00;101724.47;5002496;28;20042;-77
2023/04/09 08:17:39;;;;;;;69.03;43.78;;;;;;;5.91;100.00;101725.75;5000440;28;20440;-76
2023/04/09 08:20:05;;;;;;;66.75;44.03;;;;;;;6.02;100.00;101723.50;4992249;28;20038;-76
2023/04/09 08:22:31;;;;;;;71.78;47.78;;;;;;;5.98;100.00;101731.25;4988191;28;20502;-76
2023/04/09 08:24:57;;;;;;;70.07;45.88;;;;;;;6.03;100.00;101727.03;5002598;28;20060;-76
2023/04/09 08:27:23;;;;;;;67.35;44.72;;;;;;;6.10;100.00;101723.75;5005429;28;20038;-76
2023/04/09 08:29:49;;;;;;;65.93;44.08;;;;;;;6.19;100.00;101725.78;5000932;28;20042;-76
2023/04/09 08:32:14;;;;;;;65.40;42.47;;;;;;;6.29;100.00;101727.84;5003332;28;20038;-76
2023/04/09 08:34:40;;;;;;;66.30;42.88;;;;;;;6.33;100.00;101722.72;4983719;28;20073;-77
2023/04/09 08:37:05;;;;;;;65.10;41.65;;;;;;;6.43;100.00;101723.00;5001369;28;20066;-76
2023/04/09 08:39:31;;;;;;;67.55;43.38;;;;;;;6.54;100.00;101718.97;5002818;28;20053;-76
2023/04/09 08:42:00;;;;;;;59.75;40.03;;;;;;;6.74;100.00;101723.06;5002693;28;20034;-76
2023/04/09 08:44:26;;;;;;;58.92;40.28;;;;;;;6.86;100.00;101726.84;5002102;28;20034;-77
2023/04/09 08:46:52;;;;;;;55.78;37.45;;;;;;;7.00;100.00;101721.16;5003705;28;20061;-76
2023/04/09 08:49:18;;;;;;;58.47;39.47;;;;;;;7.08;100.00;101718.75;4988364;28;20480;-77
2023/04/09 08:51:48;;;;;;;52.20;37.35;;;;;;;7.23;100.00;101727.03;5003168;28;20038;-76
2023/04/09 08:54:16;;;;;;;54.70;36.72;;;;;;;7.36;100.00;101737.84;4993235;28;20042;-76
2023/04/09 08:56:41;;;;;;;46.58;32.83;;;;;;;7.51;100.00;101740.88;5003307;28;20082;-76
2023/04/09 08:59:08;;;;;;;54.72;36.67;;;;;;;7.62;100.00;101730.63;5008421;28;20076;-76
2023/04/09 09:01:34;;;;;;;49.67;33.28;;;;;;;7.80;100.00;101733.72;5003567;28;20484;-77
2023/04/09 09:04:04;;;;;;;46.80;33.80;;;;;;;7.88;99.25;101732.16;5009192;28;20034;-77
2023/04/09 09:06:35;;;;;;;46.85;31.48;;;;;;;7.96;99.34;101728.81;5004187;28;20034;-76
2023/04/09 09:09:14;;;;;;;52.35;36.67;;;;;;;8.07;99.36;101722.09;5003429;28;20109;-76
2023/04/09 09:11:58;;;;;;;47.60;34.40;;;;;;;8.20;98.47;101713.63;5003141;28;20042;-76
2023/04/09 09:14:23;;;;;;;46.70;33.60;;;;;;;8.33;99.59;101710.41;4988339;28;20035;-76
2023/04/09 09:16:55;;;;;;;49.35;34.78;;;;;;;8.49;96.52;101708.16;5006167;28;20394;-77
2023/04/09 09:19:23;;;;;;;48.67;34.28;;;;;;;8.52;95.18;101705.59;5004949;28;20038;-77
2023/04/09 09:21:56;;;;;;;46.28;33.83;;;;;;;8.62;95.84;101704.00;4987805;28;20034;-76
2023/04/09 09:24:22;;;;;;;46.03;33.05;;;;;;;8.70;95.04;101710.34;4986648;28;20046;-76
2023/04/09 09:26:47;;;;;;;45.55;31.98;;;;;;;8.86;94.79;101712.41;4990348;28;20045;-77
2023/04/09 09:29:12;;;;;;;44.60;31.30;;;;;;;8.96;94.68;101713.47;5003706;28;20034;-76
2023/04/09 09:31:47;;;;;;;49.33;35.33;;;;;;;8.94;92.08;101720.47;5004107;28;20046;-76
2023/04/09 09:34:13;;;;;;;43.53;31.45;;;;;;;9.09;92.29;101710.25;5002543;28;20408;-76
2023/04/09 09:36:38;;;;;;;40.15;29.73;;;;;;;9.28;92.89;101721.13;5005382;28;20044;-76
2023/04/09 09:39:08;;;;;;;40.78;29.88;;;;;;;9.44;91.50;101708.22;5005427;28;20041;-76
2023/04/09 09:41:34;;;;;;;40.78;28.95;;;;;;;9.56;90.45;101709.28;5002364;28;20499;-76
2023/04/09 09:44:00;;;;;;;41.72;29.60;;;;;;;9.63;90.73;101709.41;5004997;28;20037;-76
2023/04/09 09:46:26;;;;;;;41.22;29.88;;;;;;;9.70;89.73;101709.53;5002497;28;20125;-77
2023/04/09 09:48:52;;;;;;;39.20;27.70;;;;;;;9.80;89.20;101700.91;4988595;28;20085;-76
2023/04/09 09:51:18;;;;;;;39.78;28.27;;;;;;;9.87;88.11;101690.44;5004654;28;20048;-77
2023/04/09 09:53:44;;;;;;;36.47;26.48;;;;;;;10.11;88.27;101696.97;4992361;28;20062;-77
2023/04/09 09:56:21;;;;;;;36.45;25.08;;;;;;;10.51;85.49;101685.25;5003561;28;20076;-76
2023/04/09 09:59:00;;;;;;;36.17;26.65;;;;;;;10.76;82.56;101685.53;5004230;28;20049;-77
2023/04/09 10:01:26;;;;;;;36.40;26.80;;;;;;;11.11;81.95;101683.28;5005489;28;20041;-76
2023/04/09 10:03:52;;;;;;;36.50;25.92;;;;;;;11.40;82.40;101682.66;5004271;28;20042;-76
2023/04/09 10:06:18;;;;;;;32.35;24.88;;;;;;;11.68;79.77;101683.75;5002642;28;20085;-77
2023/04/09 10:08:47;;;;;;;34.58;25.15;;;;;;;12.02;78.54;101669.03;5018738;28;20073;-77
2023/04/09 10:11:12;;;;;;;33.22;24.75;;;;;;;12.21;75.94;101672.69;5007034;28;20040;-77
2023/04/09 10:13:41;;;;;;;35.80;27.30;;;;;;;12.54;74.09;101657.81;5006287;28;20116;-77
2023/04/09 10:16:07;;;;;;;30.38;23.27;;;;;;;12.69;74.10;101663.19;5003825;28;20077;-77
2023/04/09 10:18:33;;;;;;;34.58;25.52;;;;;;;12.48;73.71;101671.06;5002185;28;20042;-77
2023/04/09 10:21:02;;;;;;;31.23;24.25;;;;;;;12.25;73.87;101663.00;5003698;28;20038;-76
2023/04/09 10:23:40;;;;;;;32.45;24.70;;;;;;;12.24;75.35;101663.88;5004900;28;20050;-77
2023/04/09 10:26:06;;;;;;;33.05;23.65;;;;;;;12.19;74.39;101662.97;5002491;28;20081;-77
2023/04/09 10:28:32;;;;;;;30.55;21.98;;;;;;;12.24;75.15;101659.47;5003362;28;20084;-77
2023/04/09 10:30:58;;;;;;;30.55;23.50;;;;;;;12.42;74.77;101658.69;5002285;28;20073;-76
2023/04/09 10:33:25;;;;;;;31.95;24.80;;;;;;;12.36;73.57;101655.09;4992135;28;20037;-77
2023/04/09 10:35:51;;;;;;;33.65;25.88;;;;;;;12.21;73.25;101656.81;5002766;28;20036;-76
2023/04/09 10:38:16;;;;;;;28.48;21.27;;;;;;;12.14;73.50;101651.47;5002837;28;20034;-77
2023/04/09 10:40:52;;;;;;;29.85;21.98;;;;;;;12.27;74.94;101648.88;5002278;28;20445;-76
2023/04/09 10:43:22;;;;;;;31.13;24.60;;;;;;;12.30;74.84;101647.16;4995510;28;20030;-76
2023/04/09 10:45:52;;;;;;;28.75;22.52;;;;;;;12.35;74.55;101637.47;5001329;28;20042;-77
2023/04/09 10:48:19;;;;;;;28.05;21.67;;;;;;;12.65;74.07;101636.66;5003414;28;20033;-77
2023/04/09 10:50:45;;;;;;;29.83;22.65;;;;;;;13.01;71.78;101642.94;5001776;28;20125;-76
2023/04/09 10:53:22;;;;;;;27.42;21.50;;;;;;;13.30;68.58;101635.91;4987935;28;20176;-77
2023/04/09 10:55:49;;;;;;;28.17;21.45;;;;;;;13.63;69.17;101638.59;5004350;28;20094;-77
2023/04/09 10:58:15;;;;;;;26.50;20.83;;;;;;;13.70;68.96;101640.31;5004764;28;20495;-77
2023/04/09 11:00:48;;;;;;;26.83;21.60;;;;;;;13.87;67.21;101632.34;5000438;28;20030;-77
2023/04/09 11:03:19;;;;;;;25.08;19.70;;;;;;;14.24;66.71;101631.34;5001371;28;20041;-77
2023/04/09 11:05:48;;;;;;;25.80;19.90;;;;;;;14.40;65.13;101632.16;5002618;28;20038;-77
2023/04/09 11:08:15;;;;;;;26.02;20.45;;;;;;;14.55;65.64;101631.25;4985024;28;20038;-77
2023/04/09 11:10:43;;;;;;;25.02;18.60;;;;;;;14.57;63.35;101631.25;5001330;28;20095;-77